Time;durP1;ratioP1;P1;durP2;ratioP2;P2;SDS_P1;SDS_P2;PMS_P1;PMS_P2;Temp;Humidity;BMP_temperature;BMP_pressure;BME280_temperature;BME280_humidity;BME280_pressure;Samples;Min_cycle;Max_cycle;Signal;HPM_P1;HPM_P2
2022/12/15 00:40:58;;;;;;;119.57;67.20;;;-9.50;99.90;-11.10;99130;;;;566380;252;24111;-71
2022/12/15 00:43:22;;;;;;;122.47;62.70;;;-9.60;99.90;-11.20;99126;;;;558127;254;24112;-71
2022/12/15 00:48:36;;;;;;;117.60;60.80;;;-9.70;99.90;-11.30;99125;;;;557676;254;24149;-71
2022/12/15 00:51:05;;;;;;;118.97;63.17;;;-9.80;99.90;-11.40;99120;;;;557674;254;24182;-72
2022/12/15 01:21:14;;;;;;;114.03;60.27;;;-10.20;99.90;-11.80;99108;;;;565763;254;24122;-72
2022/12/15 01:23:42;;;;;;;105.57;59.43;;;-10.30;99.90;-11.80;99100;;;;557477;255;24146;-71
2022/12/15 01:26:10;;;;;;;108.90;59.40;;;-10.20;99.90;-11.80;99100;;;;557320;255;24120;-73
2022/12/15 01:28:39;;;;;;;106.93;59.77;;;-10.20;99.90;-11.80;99104;;;;557418;255;24144;-76
2022/12/15 01:31:10;;;;;;;108.07;57.83;;;-10.20;99.90;-11.80;99106;;;;557224;255;24139;-80
2022/12/15 01:33:38;;;;;;;109.30;58.10;;;-10.20;99.90;-11.80;99106;;;;555274;255;24103;-78
2022/12/15 01:36:06;;;;;;;98.97;57.07;;;-10.20;99.90;-11.80;99106;;;;557139;255;24180;-79
2022/12/15 01:38:34;;;;;;;107.13;57.40;;;-10.20;99.90;-11.80;99116;;;;555396;255;24129;-74
2022/12/15 01:41:02;;;;;;;109.23;59.20;;;-10.20;99.90;-11.80;99110;;;;557144;255;24137;-80
2022/12/15 01:43:34;;;;;;;116.17;60.60;;;-10.20;99.90;-11.80;99108;;;;557184;255;24188;-71
2022/12/15 01:46:07;;;;;;;111.10;61.10;;;-10.20;99.90;-11.70;99103;;;;557591;255;24133;-72
2022/12/15 01:48:59;;;;;;;104.57;59.87;;;-10.10;99.90;-11.70;99106;;;;555618;255;24119;-73
2022/12/15 01:51:30;;;;;;;120.27;62.30;;;-10.10;99.90;-11.70;99097;;;;555107;255;24120;-71
2022/12/15 01:54:08;;;;;;;120.23;61.20;;;-10.20;99.90;-11.70;99109;;;;558504;254;24197;-72
2022/12/15 01:56:45;;;;;;;115.20;62.20;;;-10.20;99.90;-11.60;99109;;;;566834;253;24131;-72
2022/12/15 01:59:14;;;;;;;109.47;61.60;;;-10.10;99.90;-11.60;99111;;;;556333;254;24168;-73
2022/12/15 02:01:40;;;;;;;107.67;58.50;;;-10.10;99.90;-11.60;99101;;;;555692;254;24078;-76
2022/12/15 02:04:08;;;;;;;112.30;62.63;;;-10.10;99.90;-11.60;99111;;;;566915;254;24105;-72
2022/12/15 02:06:36;;;;;;;110.77;62.30;;;-10.10;99.90;-11.60;99109;;;;558891;248;24079;-74
2022/12/15 02:09:04;;;;;;;113.83;62.13;;;-10.10;99.90;-11.60;99103;;;;558595;252;24138;-72
2022/12/15 02:11:56;;;;;;;123.57;66.67;;;-10.10;99.90;-11.60;99114;;;;569427;249;24079;-75
2022/12/15 02:14:48;;;;;;;118.60;64.77;;;-10.10;99.90;-11.60;99101;;;;547881;258;24146;-73
2022/12/15 02:17:34;;;;;;;114.40;62.03;;;-10.10;99.90;-11.60;99096;;;;567465;253;24106;-76
2022/12/15 02:20:23;;;;;;;116.93;63.20;;;-10.10;99.90;-11.60;99108;;;;558422;249;24127;-78
2022/12/15 02:23:21;;;;;;;110.47;61.47;;;-10.10;99.90;-11.70;99113;;;;569326;249;24097;-74
2022/12/15 02:26:24;;;;;;;113.13;61.50;;;-10.10;99.90;-11.70;99109;;;;569836;249;24090;-78
2022/12/15 02:29:34;;;;;;;105.47;59.37;;;-10.20;99.90;-11.80;99119;;;;569770;249;24168;-75
2022/12/15 02:32:14;;;;;;;109.63;57.63;;;-10.20;99.90;-11.90;99111;;;;570350;249;24169;-73
2022/12/15 02:34:54;;;;;;;110.90;59.03;;;-10.30;99.90;-11.90;99119;;;;578972;248;24126;-74
2022/12/15 02:37:37;;;;;;;108.60;58.40;;;-10.30;99.90;-11.90;99127;;;;578724;248;24164;-70
2022/12/15 02:40:05;;;;;;;101.10;55.50;;;-10.30;99.90;-11.90;99107;;;;566999;249;24075;-74
2022/12/15 02:42:33;;;;;;;110.33;56.53;;;-10.40;99.90;-12.00;99111;;;;566661;249;24144;-72
2022/12/15 02:45:14;;;;;;;109.03;57.13;;;-10.50;99.90;-12.10;99108;;;;565793;249;24080;-69
2022/12/15 02:47:57;;;;;;;104.93;55.67;;;-10.50;99.90;-12.10;99111;;;;577787;248;24124;-73
2022/12/15 02:50:49;;;;;;;97.87;54.30;;;-10.60;99.90;-12.20;99106;;;;552016;254;24129;-73
2022/12/15 02:53:26;;;;;;;103.43;55.10;;;-10.60;99.90;-12.20;99108;;;;570498;248;24105;-72
2022/12/15 02:56:06;;;;;;;95.63;54.43;;;-10.60;99.90;-12.20;99103;;;;570739;249;24089;-71
2022/12/15 02:59:10;;;;;;;101.03;55.60;;;-10.60;99.90;-12.30;99105;;;;566021;249;24095;-73
2022/12/15 03:01:53;;;;;;;99.43;54.17;;;-10.60;99.90;-12.30;99102;;;;560067;249;24100;-70
2022/12/15 03:04:21;;;;;;;103.77;55.97;;;-10.70;99.90;-12.30;99100;;;;566088;248;24144;-70
2022/12/15 03:06:58;;;;;;;101.20;56.73;;;-10.70;99.90;-12.20;99099;;;;570197;249;24098;-70
2022/12/15 03:09:26;;;;;;;100.60;55.13;;;-10.70;99.90;-12.30;99106;;;;569891;249;24131;-71
2022/12/15 03:11:54;;;;;;;93.97;53.10;;;-10.70;99.90;-12.30;99097;;;;575176;249;24091;-71
2022/12/15 03:14:24;;;;;;;97.10;53.63;;;-10.70;99.90;-12.30;99101;;;;554509;256;24150;-73
2022/12/15 03:16:50;;;;;;;90.20;51.53;;;-10.70;99.90;-12.30;99104;;;;569299;249;24090;-70
2022/12/15 03:19:18;;;;;;;92.80;52.10;;;-10.70;99.90;-12.30;99102;;;;558284;254;24158;-71
2022/12/15 03:21:47;;;;;;;96.43;54.40;;;-10.60;99.90;-12.20;99097;;;;558655;254;24161;-72
2022/12/15 03:24:15;;;;;;;91.13;52.73;;;-10.60;99.90;-12.20;99099;;;;555387;255;24181;-73
2022/12/15 03:26:43;;;;;;;90.87;52.93;;;-10.60;99.90;-12.20;99091;;;;565216;251;24174;-71
2022/12/15 03:29:12;;;;;;;96.07;54.03;;;-10.60;99.90;-12.20;99095;;;;565299;251;24164;-72
2022/12/15 03:31:40;;;;;;;92.53;51.40;;;-10.60;99.90;-12.10;99105;;;;565229;251;24120;-71
2022/12/15 03:34:08;;;;;;;89.30;53.00;;;-10.50;99.90;-12.10;99105;;;;565157;251;24175;-72
2022/12/15 03:36:36;;;;;;;88.33;50.77;;;-10.50;99.90;-12.00;99097;;;;565091;251;24118;-71
2022/12/15 03:39:04;;;;;;;115.70;72.82;;;-10.40;99.90;-11.90;99096;;;;560303;251;35511;-71
2022/12/15 03:41:32;;;;;;;113.45;67.65;;;-10.40;99.90;-11.80;99095;;;;558959;251;46401;-72
2022/12/15 03:43:59;;;;;;;101.97;58.00;;;-10.30;99.90;-11.80;99091;;;;565071;251;24158;-71
2022/12/15 03:46:27;;;;;;;100.95;57.95;;;-10.20;99.90;-11.70;99103;;;;568767;250;35430;-71
2022/12/15 03:48:57;;;;;;;95.03;56.50;;;-10.10;99.90;-11.70;99107;;;;563793;251;24120;-71
2022/12/15 03:51:24;;;;;;;96.87;59.60;;;-10.20;99.90;-11.80;99102;;;;564905;251;24236;-73
2022/12/15 03:53:52;;;;;;;97.17;59.63;;;-10.20;99.90;-11.80;99097;;;;565026;251;24117;-71
2022/12/15 03:56:20;;;;;;;93.63;54.40;;;-10.20;99.90;-11.80;99098;;;;564935;251;24114;-71
2022/12/15 03:58:48;;;;;;;95.30;54.90;;;-10.20;99.90;-11.80;99095;;;;565058;251;24120;-72
2022/12/15 04:01:19;;;;;;;88.77;53.53;;;-10.20;99.90;-11.70;99106;;;;563868;251;24103;-72
2022/12/15 04:03:47;;;;;;;88.20;52.80;;;-10.20;99.90;-11.80;99103;;;;563773;251;24189;-72
2022/12/15 04:06:14;;;;;;;93.33;54.30;;;-10.20;99.90;-11.80;99098;;;;564976;251;24107;-72
2022/12/15 04:08:42;;;;;;;92.13;52.43;;;-10.20;99.90;-11.80;99105;;;;565515;251;24109;-71
2022/12/15 04:11:10;;;;;;;91.70;52.60;;;-10.20;99.90;-11.90;99098;;;;565523;251;24140;-71
2022/12/15 04:13:38;;;;;;;91.37;49.97;;;-10.30;99.90;-12.00;99108;;;;565113;251;24128;-71
2022/12/15 04:16:06;;;;;;;90.87;50.03;;;-10.30;99.90;-12.10;99094;;;;565952;250;24100;-71
2022/12/15 04:18:34;;;;;;;87.43;49.77;;;-10.40;99.90;-12.10;99108;;;;566415;250;24140;-71
2022/12/15 04:21:05;;;;;;;82.13;49.77;;;-10.50;99.90;-12.10;99114;;;;566045;250;24165;-71
2022/12/15 04:23:31;;;;;;;83.20;48.87;;;-10.50;99.90;-12.20;99101;;;;565851;250;24147;-71
2022/12/15 05:32:30;;;;;;;83.07;48.37;;;-10.80;99.90;-12.40;99139;;;;566103;250;24093;-71
2022/12/15 05:34:57;;;;;;;90.23;48.97;;;-10.80;99.90;-12.40;99130;;;;575418;248;24120;-72
2022/12/15 05:37:26;;;;;;;87.93;48.93;;;-10.80;99.90;-12.50;99128;;;;566918;250;24113;-73
2022/12/15 05:39:56;;;;;;;87.90;45.13;;;-10.90;99.90;-12.50;99125;;;;567015;250;24115;-74
2022/12/15 05:42:25;;;;;;;82.90;47.67;;;-10.90;99.90;-12.50;99132;;;;566616;250;24200;-70
2022/12/15 05:44:53;;;;;;;75.70;45.13;;;-10.90;99.90;-12.60;99130;;;;567422;250;24078;-77
2022/12/15 05:47:21;;;;;;;85.87;45.90;;;-10.90;99.90;-12.60;99134;;;;567007;251;24164;-71
2022/12/15 05:49:49;;;;;;;92.90;51.93;;;-11.00;99.90;-12.70;99143;;;;566084;251;24110;-70
2022/12/15 05:52:17;;;;;;;93.97;51.80;;;-11.00;99.90;-12.70;99147;;;;565129;251;24102;-70
2022/12/15 05:54:45;;;;;;;97.37;51.37;;;-11.00;99.90;-12.70;99146;;;;564981;251;24160;-71
2022/12/15 05:57:13;;;;;;;95.27;53.10;;;-11.10;99.90;-12.70;99147;;;;565307;251;24152;-72
2022/12/15 05:59:42;;;;;;;89.17;48.73;;;-11.10;99.90;-12.70;99145;;;;565197;251;24110;-71
2022/12/15 06:02:10;;;;;;;86.63;48.27;;;-11.10;99.90;-12.70;99150;;;;565230;251;24149;-71
2022/12/15 06:04:38;;;;;;;86.97;48.87;;;-11.10;99.90;-12.70;99152;;;;565007;251;24117;-71
2022/12/15 06:07:06;;;;;;;85.57;49.17;;;-11.00;99.90;-12.60;99149;;;;565715;251;24184;-73
2022/12/15 06:09:35;;;;;;;95.10;54.43;;;-11.00;99.90;-12.60;99154;;;;566415;251;24160;-72
2022/12/15 06:12:06;;;;;;;89.23;51.90;;;-11.00;99.90;-12.60;99174;;;;574608;247;24105;-72
2022/12/15 06:14:34;;;;;;;94.03;50.80;;;-11.00;99.90;-12.60;99167;;;;573277;250;24152;-72
2022/12/15 06:17:00;;;;;;;92.27;50.83;;;-11.00;99.90;-12.60;99168;;;;564907;251;24135;-72
2022/12/15 06:19:32;;;;;;;90.13;49.87;;;-10.90;99.90;-12.50;99177;;;;564077;251;24129;-72
2022/12/15 06:21:58;;;;;;;94.40;50.37;;;-10.80;99.90;-12.50;99174;;;;565153;249;24112;-73
2022/12/15 06:24:25;;;;;;;95.60;51.30;;;-10.90;99.90;-12.40;99181;;;;565395;251;24206;-72
2022/12/15 06:26:53;;;;;;;92.90;51.50;;;-10.80;99.90;-12.30;99183;;;;565488;251;24157;-72
2022/12/15 06:29:22;;;;;;;96.37;53.27;;;-10.70;99.90;-12.20;99189;;;;565468;251;24111;-72
2022/12/15 06:31:50;;;;;;;98.93;53.97;;;-10.70;99.90;-12.10;99192;;;;565367;251;24235;-73
2022/12/15 06:34:18;;;;;;;103.23;55.87;;;-10.60;99.90;-12.00;99201;;;;565316;251;24109;-72
2022/12/15 06:36:46;;;;;;;104.23;56.33;;;-10.50;99.90;-12.00;99201;;;;565596;251;25170;-72
2022/12/15 06:39:14;;;;;;;109.80;56.80;;;-10.40;99.90;-11.90;99204;;;;566090;250;24131;-72
2022/12/15 06:41:42;;;;;;;99.50;55.80;;;-10.40;99.90;-11.80;99205;;;;566325;250;24112;-72
2022/12/15 06:44:12;;;;;;;97.03;53.40;;;-10.30;99.90;-11.70;99214;;;;564939;250;24120;-72
2022/12/15 06:46:40;;;;;;;96.77;53.60;;;-10.20;99.90;-11.60;99225;;;;570554;249;24106;-73
2022/12/15 06:49:11;;;;;;;107.35;64.65;;;-10.10;99.90;-11.60;99239;;;;574004;248;35270;-73
2022/12/15 06:51:36;;;;;;;94.83;55.80;;;-10.10;99.90;-11.60;99238;;;;556972;253;24113;-72
2022/12/15 06:54:05;;;;;;;98.67;55.20;;;-10.00;99.90;-11.50;99235;;;;563073;254;24156;-73
2022/12/15 06:56:35;;;;;;;89.17;52.63;;;-10.00;99.90;-11.50;99247;;;;566499;249;24144;-72
2022/12/15 06:59:02;;;;;;;91.97;52.37;;;-9.90;99.90;-11.50;99243;;;;566763;249;24183;-76
2022/12/15 07:01:30;;;;;;;95.60;52.63;;;-9.90;99.90;-11.50;99239;;;;569917;249;24181;-74
2022/12/15 07:04:03;;;;;;;93.23;53.40;;;-9.90;99.90;-11.40;99251;;;;578519;248;24162;-72
2022/12/15 07:06:30;;;;;;;92.40;50.93;;;-9.90;99.90;-11.40;99243;;;;569572;249;24134;-72
2022/12/15 07:08:58;;;;;;;107.37;54.03;;;-9.80;99.90;-11.40;99254;;;;580082;248;24127;-74
2022/12/15 07:11:26;;;;;;;102.10;53.60;;;-9.80;99.90;-11.40;99240;;;;555590;256;24141;-75
2022/12/15 07:13:54;;;;;;;107.47;55.27;;;-9.80;99.90;-11.30;99237;;;;566751;251;24127;-76
2022/12/15 07:16:24;;;;;;;98.23;53.70;;;-9.80;99.90;-11.30;99238;;;;565927;251;24128;-72
2022/12/15 07:18:50;;;;;;;100.13;53.70;;;-9.70;99.90;-11.20;99254;;;;566860;251;24184;-74
2022/12/15 07:21:18;;;;;;;97.10;51.17;;;-9.60;99.90;-11.10;99252;;;;565816;251;24162;-72
2022/12/15 07:23:46;;;;;;;95.47;50.90;;;-9.60;99.90;-11.10;99262;;;;565706;251;24111;-73
2022/12/15 07:26:14;;;;;;;94.17;49.63;;;-9.60;99.90;-11.10;99262;;;;566537;251;24107;-74
2022/12/15 07:28:42;;;;;;;98.80;51.60;;;-9.50;99.90;-11.00;99266;;;;566586;251;24110;-74
2022/12/15 07:31:14;;;;;;;92.57;49.17;;;-9.50;99.90;-11.00;99269;;;;566809;251;24093;-75
2022/12/15 07:33:41;;;;;;;89.07;48.70;;;-9.50;99.90;-11.00;99276;;;;566833;251;24138;-74
2022/12/15 07:36:12;;;;;;;86.23;48.70;;;-9.40;99.90;-10.90;99281;;;;566519;251;24139;-72
2022/12/15 07:38:36;;;;;;;91.10;48.83;;;-9.40;99.90;-10.80;99289;;;;570393;249;24102;-75
2022/12/15 07:41:04;;;;;;;92.53;49.93;;;-9.30;99.90;-10.80;99289;;;;579233;248;24112;-73
2022/12/15 07:43:32;;;;;;;84.13;49.47;;;-9.30;99.90;-10.70;99291;;;;563731;253;24133;-75
2022/12/15 07:46:00;;;;;;;84.40;50.20;;;-9.20;99.90;-10.60;99295;;;;566008;251;24106;-74
2022/12/15 07:48:31;;;;;;;87.63;49.57;;;-9.10;99.90;-10.50;99297;;;;566560;251;24150;-80
2022/12/15 07:50:59;;;;;;;83.93;47.40;;;-9.00;99.90;-10.50;99307;;;;567285;250;24156;-78
2022/12/15 07:53:27;;;;;;;79.50;47.03;;;-9.00;99.90;-10.50;99305;;;;567711;250;24106;-76
2022/12/15 07:55:55;;;;;;;84.63;48.73;;;-9.00;99.90;-10.50;99313;;;;576318;248;24100;-79
2022/12/15 07:58:23;;;;;;;80.07;47.00;;;-9.00;99.90;-10.40;99313;;;;565639;250;24116;-79
2022/12/15 08:00:51;;;;;;;85.10;48.07;;;-8.90;99.90;-10.40;99309;;;;566458;250;24101;-83
2022/12/15 08:03:18;;;;;;;82.93;46.50;;;-8.90;99.90;-10.30;99321;;;;566339;250;24128;-78
2022/12/15 08:05:46;;;;;;;71.97;44.10;;;-8.80;99.90;-10.30;99326;;;;566119;250;24098;-73
2022/12/15 08:08:17;;;;;;;83.50;45.23;;;-8.70;99.90;-10.20;99312;;;;565825;251;24095;-73
2022/12/15 08:10:44;;;;;;;75.10;44.90;;;-8.70;99.90;-10.20;99317;;;;565380;251;24144;-73
2022/12/15 08:13:12;;;;;;;73.73;44.37;;;-8.70;99.90;-10.20;99326;;;;565480;251;24127;-74
2022/12/15 08:15:41;;;;;;;73.10;44.57;;;-8.60;99.90;-10.10;99323;;;;564976;251;24151;-72
2022/12/15 08:18:10;;;;;;;74.93;44.97;;;-8.60;99.90;-10.10;99335;;;;565133;251;24135;-72
2022/12/15 08:20:38;;;;;;;82.17;45.63;;;-8.60;99.90;-10.00;99338;;;;565667;251;24175;-73
2022/12/15 08:23:06;;;;;;;77.17;44.07;;;-8.50;99.90;-10.00;99339;;;;565699;251;24114;-73
2022/12/15 08:25:34;;;;;;;78.10;48.50;;;-8.50;99.90;-9.90;99340;;;;565672;251;24136;-74
2022/12/15 08:28:02;;;;;;;82.47;49.93;;;-8.40;99.90;-9.80;99342;;;;565298;251;24101;-72
2022/12/15 08:30:31;;;;;;;73.00;46.77;;;-8.40;99.90;-9.70;99342;;;;565496;251;24173;-72
2022/12/15 08:32:57;;;;;;;81.03;51.20;;;-8.30;99.90;-9.70;99351;;;;565211;251;24120;-73
2022/12/15 08:35:25;;;;;;;82.93;46.27;;;-8.20;99.90;-9.60;99348;;;;565565;251;24207;-72
2022/12/15 08:37:54;;;;;;;76.63;42.03;;;-8.00;99.90;-9.50;99357;;;;565664;251;24112;-72
2022/12/15 08:40:23;;;;;;;67.37;43.40;;;-7.90;99.90;-9.40;99359;;;;565966;251;24134;-73
2022/12/15 08:42:51;;;;;;;68.07;40.77;;;-7.80;99.90;-9.30;99345;;;;566384;251;24145;-73
2022/12/15 08:45:19;;;;;;;65.87;40.93;;;-7.90;99.90;-9.20;99356;;;;566347;251;25210;-73
2022/12/15 08:47:47;;;;;;;71.40;42.97;;;-7.70;99.90;-9.10;99355;;;;566334;251;24096;-77
2022/12/15 08:50:15;;;;;;;65.73;41.10;;;-7.70;99.90;-9.10;99361;;;;566122;251;24122;-76
2022/12/15 08:52:43;;;;;;;68.17;42.40;;;-7.60;99.90;-9.00;99359;;;;566021;251;24105;-74
2022/12/15 08:55:11;;;;;;;70.93;42.00;;;-7.50;99.90;-8.90;99373;;;;566191;251;24105;-76
2022/12/15 08:57:39;;;;;;;67.33;41.60;;;-7.50;99.90;-8.80;99372;;;;566102;251;24211;-71
2022/12/15 09:00:07;;;;;;;69.53;40.80;;;-7.30;99.90;-8.70;99374;;;;561023;251;35623;-72
2022/12/15 09:02:35;;;;;;;63.03;38.73;;;-7.30;99.90;-8.70;99388;;;;566969;250;24184;-74
2022/12/15 09:05:05;;;;;;;68.50;38.90;;;-7.20;99.90;-8.60;99376;;;;567050;250;24153;-75
2022/12/15 09:07:31;;;;;;;64.60;37.42;;;-7.20;99.90;-8.50;99379;;;;560749;250;35487;-72
2022/12/15 09:09:59;;;;;;;64.33;36.17;;;-7.10;99.90;-8.40;99378;;;;566799;250;24146;-73
2022/12/15 09:12:27;;;;;;;62.90;37.50;;;-7.00;99.90;-8.30;99375;;;;566347;250;24132;-75
2022/12/15 09:14:55;;;;;;;63.97;37.43;;;-6.90;99.90;-8.30;99380;;;;566155;250;24128;-75
2022/12/15 09:17:22;;;;;;;63.70;38.17;;;-6.90;99.90;-8.20;99373;;;;566204;250;24120;-79
2022/12/15 09:19:51;;;;;;;64.63;39.77;;;-6.80;99.90;-8.20;99380;;;;574871;250;24142;-72
2022/12/15 09:22:18;;;;;;;68.27;40.23;;;-6.80;99.90;-8.20;99369;;;;570057;249;24191;-72
2022/12/15 09:24:47;;;;;;;60.73;38.67;;;-6.80;99.90;-8.20;99377;;;;568143;253;24117;-72
2022/12/15 09:27:16;;;;;;;61.47;39.67;;;-6.70;99.90;-8.10;99382;;;;555880;254;24099;-72
2022/12/15 09:29:44;;;;;;;67.37;37.73;;;-6.80;99.90;-8.10;99385;;;;577623;248;24093;-72
2022/12/15 09:32:12;;;;;;;63.83;40.40;;;-6.70;99.90;-8.10;99382;;;;568120;252;24173;-72
2022/12/15 09:34:39;;;;;;;61.80;40.23;;;-6.70;99.90;-8.00;99388;;;;567479;249;24102;-72
2022/12/15 09:37:07;;;;;;;65.80;39.80;;;-6.70;99.90;-8.00;99397;;;;556927;254;24115;-72
2022/12/15 09:39:37;;;;;;;62.00;40.13;;;-6.60;99.90;-8.00;99392;;;;556708;255;24123;-73
2022/12/15 09:42:04;;;;;;;62.90;38.77;;;-6.60;99.90;-7.90;99394;;;;556786;255;24112;-72
2022/12/15 09:44:35;;;;;;;62.73;36.97;;;-6.50;99.90;-7.80;99394;;;;556606;255;24246;-73
2022/12/15 09:47:19;;;;;;;56.87;35.47;;;-6.50;99.90;-7.80;99395;;;;556882;255;24205;-72
2022/12/15 09:49:58;;;;;;;56.30;35.20;;;-6.40;99.90;-7.70;99382;;;;555142;255;24126;-72
2022/12/15 09:52:39;;;;;;;62.07;38.07;;;-6.30;99.90;-7.60;99388;;;;556817;255;24138;-72
2022/12/15 09:55:08;;;;;;;57.43;36.20;;;-6.30;99.90;-7.50;99402;;;;556651;255;24183;-73
2022/12/15 09:57:44;;;;;;;58.60;35.47;;;-6.20;99.90;-7.50;99391;;;;564080;254;24234;-72
2022/12/15 10:00:24;;;;;;;59.63;37.03;;;-6.20;99.90;-7.40;99404;;;;555051;255;24200;-71
2022/12/15 10:03:22;;;;;;;60.87;38.13;;;-6.10;99.90;-7.40;99402;;;;554835;255;25255;-72
2022/12/15 10:06:09;;;;;;;61.37;38.60;;;-6.00;99.90;-7.30;99398;;;;572609;247;24113;-72
2022/12/15 10:08:40;;;;;;;58.97;36.73;;;-5.90;99.90;-7.20;99398;;;;563933;251;24117;-71
2022/12/15 10:11:48;;;;;;;58.70;36.23;;;-5.90;99.90;-7.10;99392;;;;564662;251;24126;-71
2022/12/15 10:14:37;;;;;;;57.77;36.70;;;-5.80;99.90;-7.10;99393;;;;565686;250;24113;-72
2022/12/15 10:17:25;;;;;;;57.87;36.63;;;-5.80;99.90;-7.00;99394;;;;566427;250;24117;-72
2022/12/15 10:20:05;;;;;;;60.43;37.73;;;-5.70;99.90;-7.00;99398;;;;566810;250;24129;-76
2022/12/15 10:22:33;;;;;;;61.43;39.10;;;-5.70;99.90;-6.90;99397;;;;565133;250;24186;-74
2022/12/15 10:25:08;;;;;;;65.50;39.27;;;-5.50;99.90;-6.90;99386;;;;565618;250;25172;-72
2022/12/15 10:28:14;;;;;;;67.73;38.70;;;-5.60;99.90;-6.90;99392;;;;576563;248;24102;-78
2022/12/15 10:30:51;;;;;;;61.57;37.53;;;-5.50;99.90;-6.80;99394;;;;568489;253;24141;-74
2022/12/15 10:33:33;;;;;;;59.07;36.27;;;-5.50;99.90;-6.80;99408;;;;564072;249;24103;-72
2022/12/15 10:36:01;;;;;;;59.37;35.80;;;-5.50;99.90;-6.80;99392;;;;574551;249;24111;-74
2022/12/15 10:38:44;;;;;;;57.13;33.33;;;-5.40;99.90;-6.70;99382;;;;567465;253;24183;-70
2022/12/15 10:41:21;;;;;;;57.43;32.13;;;-5.40;99.90;-6.70;99385;;;;578981;248;24086;-72
2022/12/15 10:43:51;;;;;;;57.27;35.07;;;-5.30;99.90;-6.70;99390;;;;555950;255;24082;-78
2022/12/15 10:46:21;;;;;;;58.13;33.90;;;-5.30;99.90;-6.60;99388;;;;579376;248;24073;-72
2022/12/15 10:48:49;;;;;;;58.40;35.20;;;-5.30;99.90;-6.60;99392;;;;570447;249;24102;-77
2022/12/15 10:51:26;;;;;;;59.10;33.90;;;-5.20;99.90;-6.60;99395;;;;563316;254;25216;-78
2022/12/15 10:54:00;;;;;;;50.40;28.63;;;-5.20;99.90;-6.60;99390;;;;563610;255;24149;-79
2022/12/15 10:56:27;;;;;;;46.70;27.27;;;-5.20;99.90;-6.50;99389;;;;568998;249;24097;-80
2022/12/15 10:58:58;;;;;;;51.43;27.03;;;-5.20;99.90;-6.40;99390;;;;566845;253;24312;-81
2022/12/15 11:01:26;;;;;;;47.50;28.00;;;-5.10;99.90;-6.40;99390;;;;566344;251;24145;-72
2022/12/15 11:03:58;;;;;;;50.30;27.60;;;-5.10;99.90;-6.30;99393;;;;574930;250;24127;-71
2022/12/15 11:06:28;;;;;;;44.73;24.30;;;-5.00;99.90;-6.20;99389;;;;565758;251;24116;-80
2022/12/15 11:08:56;;;;;;;35.40;20.33;;;-4.90;99.90;-6.10;99392;;;;566171;251;24146;-79
2022/12/15 11:14:16;;;;;;;30.00;17.33;;;-4.70;99.90;-6.00;99395;;;;565579;251;24181;-72
2022/12/15 11:16:56;;;;;;;30.90;17.93;;;-4.70;99.90;-5.90;99396;;;;573672;250;24168;-73
2022/12/15 11:19:39;;;;;;;30.73;17.40;;;-4.60;99.90;-5.90;99405;;;;565787;251;24140;-73
2022/12/15 11:22:19;;;;;;;28.13;16.93;;;-4.60;99.90;-5.90;99413;;;;566001;251;24113;-72
2022/12/15 11:24:58;;;;;;;31.80;18.60;;;-4.50;99.90;-5.90;99411;;;;565685;249;24122;-79
2022/12/15 11:27:37;;;;;;;34.30;20.40;;;-4.50;99.90;-5.80;99417;;;;574533;250;24133;-71
2022/12/15 11:30:17;;;;;;;35.17;20.57;;;-4.50;99.90;-5.70;99409;;;;565837;250;24121;-73
2022/12/15 11:32:54;;;;;;;42.97;22.50;;;-4.40;99.90;-5.70;99421;;;;568177;250;25490;-73
2022/12/15 11:35:43;;;;;;;39.30;21.00;;;-4.40;99.90;-5.70;99414;;;;565900;250;24102;-74
2022/12/15 11:38:19;;;;;;;36.20;21.70;;;-4.30;99.90;-5.60;99418;;;;565573;250;24144;-72
2022/12/15 11:40:47;;;;;;;41.20;23.93;;;-4.30;99.90;-5.60;99415;;;;565269;250;24105;-75
2022/12/15 11:43:58;;;;;;;45.42;29.40;;;-4.30;99.90;-5.60;99416;;;;560405;251;46417;-71
2022/12/15 11:46:51;;;;;;;45.07;25.07;;;-4.30;99.90;-5.60;99417;;;;565250;251;24198;-71
2022/12/15 11:49:33;;;;;;;40.70;25.10;;;-4.30;99.90;-5.50;99429;;;;568820;250;24119;-71
2022/12/15 11:52:28;;;;;;;42.73;23.73;;;-4.20;99.90;-5.50;99434;;;;569124;249;24120;-72
2022/12/15 11:54:59;;;;;;;43.23;26.90;;;-4.20;99.90;-5.50;99430;;;;554765;254;24117;-71
2022/12/15 11:57:39;;;;;;;41.07;26.87;;;-4.20;99.90;-5.50;99428;;;;576791;248;24105;-71
2022/12/15 12:00:11;;;;;;;42.97;25.13;;;-4.10;99.90;-5.40;99435;;;;563570;249;24111;-69
2022/12/15 12:02:48;;;;;;;44.57;25.47;;;-4.20;99.90;-5.40;99431;;;;563110;249;24134;-72
2022/12/15 12:05:34;;;;;;;43.57;24.37;;;-4.20;99.90;-5.40;99431;;;;555465;254;24171;-71
2022/12/15 12:08:29;;;;;;;45.37;27.63;;;-4.10;99.90;-5.40;99443;;;;565009;249;24174;-72
2022/12/15 12:11:25;;;;;;;47.90;31.52;;;-4.10;99.90;-5.40;99438;;;;568716;249;35385;-73
2022/12/15 12:14:15;;;;;;;43.73;27.27;;;-4.10;99.90;-5.40;99444;;;;562324;249;24136;-71
2022/12/15 12:16:55;;;;;;;45.07;27.57;;;-4.10;99.90;-5.30;99439;;;;568942;249;24088;-71
2022/12/15 12:19:42;;;;;;;46.70;26.53;;;-4.10;99.90;-5.30;99446;;;;568731;248;24112;-70
2022/12/15 12:22:13;;;;;;;47.27;27.30;;;-4.00;99.90;-5.30;99461;;;;566274;249;24103;-72
2022/12/15 12:24:41;;;;;;;43.23;28.17;;;-4.00;99.90;-5.30;99458;;;;568178;249;24096;-72
2022/12/15 12:27:31;;;;;;;40.87;25.23;;;-4.00;99.90;-5.30;99450;;;;577460;248;24104;-73
2022/12/15 12:29:59;;;;;;;46.37;26.73;;;-4.00;99.90;-5.30;99445;;;;568739;249;24109;-72
2022/12/15 12:32:46;;;;;;;45.80;27.07;;;-4.00;99.90;-5.30;99458;;;;565681;249;24094;-72
2022/12/15 12:35:36;;;;;;;47.73;27.53;;;-4.00;99.90;-5.30;99451;;;;577159;248;24095;-72
2022/12/15 12:38:04;;;;;;;48.37;28.80;;;-4.00;99.90;-5.30;99456;;;;569916;249;24092;-72
2022/12/15 12:41:04;;;;;;;47.07;26.57;;;-4.00;99.90;-5.30;99454;;;;555069;254;24121;-72
2022/12/15 12:43:37;;;;;;;47.63;27.80;;;-4.00;99.90;-5.30;99457;;;;565624;250;24131;-72
2022/12/15 12:46:24;;;;;;;47.53;27.87;;;-4.00;99.90;-5.30;99461;;;;574057;250;24231;-71
2022/12/15 12:49:06;;;;;;;48.37;26.70;;;-3.90;99.90;-5.30;99466;;;;574036;250;24113;-71
2022/12/15 12:51:34;;;;;;;52.80;30.13;;;-4.00;99.90;-5.20;99455;;;;563811;250;24130;-72
2022/12/15 12:54:02;;;;;;;46.40;28.27;;;-3.90;99.90;-5.20;99468;;;;563968;250;24113;-70
2022/12/15 12:56:42;;;;;;;48.37;27.50;;;-3.90;99.90;-5.20;99464;;;;565204;251;24118;-72
2022/12/15 12:59:28;;;;;;;45.30;25.80;;;-3.90;99.90;-5.20;99468;;;;564302;251;24130;-72
2022/12/15 13:01:59;;;;;;;45.03;26.63;;;-3.90;99.90;-5.30;99466;;;;569645;251;24136;-72
2022/12/15 13:04:32;;;;;;;46.10;26.70;;;-4.00;99.90;-5.30;99466;;;;557974;251;24139;-72
2022/12/15 13:07:05;;;;;;;50.13;29.77;;;-4.00;99.90;-5.40;99468;;;;570327;251;24111;-76
2022/12/15 13:09:42;;;;;;;46.60;28.50;;;-4.00;99.90;-5.40;99458;;;;564966;251;24138;-77
2022/12/15 13:12:58;;;;;;;50.17;29.23;;;-4.10;99.90;-5.40;99456;;;;566364;251;24134;-74
2022/12/15 13:15:28;;;;;;;56.43;31.40;;;-4.10;99.90;-5.40;99461;;;;568925;247;24160;-73
2022/12/15 13:17:59;;;;;;;48.63;30.50;;;-4.10;99.90;-5.50;99460;;;;569959;251;24148;-73
2022/12/15 13:20:27;;;;;;;47.00;28.40;;;-4.20;99.90;-5.50;99466;;;;563944;251;24113;-71
2022/12/15 13:22:55;;;;;;;51.43;29.00;;;-4.20;99.90;-5.60;99461;;;;564090;251;24202;-72
2022/12/15 13:25:41;;;;;;;49.67;29.17;;;-4.20;99.90;-5.60;99468;;;;565189;251;24117;-72
2022/12/15 13:28:23;;;;;;;52.00;31.80;;;-4.30;99.90;-5.70;99458;;;;565287;251;24114;-72
2022/12/15 13:31:16;;;;;;;49.00;29.77;;;-4.40;99.90;-5.70;99465;;;;571946;247;24124;-72
2022/12/15 13:33:49;;;;;;;53.87;33.47;;;-4.40;99.90;-5.80;99467;;;;574545;250;24117;-71
2022/12/15 13:36:39;;;;;;;51.37;32.27;;;-4.50;99.90;-5.80;99479;;;;565378;251;24141;-72
2022/12/15 13:39:16;;;;;;;54.87;30.83;;;-4.50;99.90;-5.80;99475;;;;570857;251;24145;-72